Flight Track Log - Related Links

Times and Time Zones

All times are in EDT time to prevent confusion due to time zone crossing. See the AAY891 flight status page for this flight to view local times or setup timezone preferences in your user account.


Time Position Orientation Groundspeed Altitude Reporting Facility
EDT Latitude Longitude Course Direction KTS MPH feet Rate Location/Type
Fri 07:29:34 PM 40.9192 -85.2219 153° Southeast 175 201 3,900  Level Chicago Center
Fri 07:30:36 PM 40.8722 -85.1578 134° Southeast 224 258 6,000 2,177 Climbing Chicago Center
Fri 07:31:38 PM 40.8119 -85.0958 142° Southeast 267 307 8,400 2,323 Climbing Chicago Center
Fri 07:32:40 PM 40.7269 -85.0247 148° Southeast 295 339 10,800 1,742 Climbing Chicago Center
Fri 07:33:42 PM 40.6489 -84.9578 147° Southeast 340 391 12,000 1,632 Climbing Chicago Center
Fri 07:34:00 PM 40.7770 -85.1496 153° Southeast  Level Estimated
Fri 07:34:45 PM 40.5539 -84.8722 146° Southeast 396 456 14,200  Level Chicago Center
Fri 07:35:47 PM 40.4567 -84.7833 145° Southeast 417 480 16,300 2,129 Climbing Chicago Center
Fri 07:36:49 PM 40.3369 -84.6767 146° Southeast 428 493 18,600 2,032 Climbing Chicago Center
Fri 07:37:51 PM 40.2319 -84.5844 146° Southeast 445 512 20,500 1,597 Climbing Chicago Center
Fri 07:38:53 PM 40.1300 -84.4922 145° Southeast 448 516 21,900 1,403 Climbing Chicago Center
Fri 07:39:55 PM 40.0111 -84.4025 150° Southeast 485 558 23,400 1,645 Climbing Chicago Center
Fri 07:40:57 PM 39.8892 -84.3828 173° South 451 519 25,300 1,770 Climbing Chicago Center
Fri 07:42:14 PM 39.7247 -84.3597 174° South 454 522 27,500 1,683 Climbing Indianapolis Center
Fri 07:43:16 PM 39.6022 -84.3450 175° South 451 519 29,200 1,645 Climbing Indianapolis Center
Fri 07:44:18 PM 39.4614 -84.3281 175° South 434 499 30,900 871 Climbing Indianapolis Center
Fri 07:45:20 PM 39.3461 -84.3133 174° South 424 488 31,000 49 Climbing Indianapolis Center
Fri 07:46:21 PM 39.2322 -84.2978 174° South 417 480 31,000  Level Indianapolis Center
Fri 07:47:23 PM 39.1206 -84.2831 174° South 411 473 31,000  Level Indianapolis Center
Fri 07:48:25 PM 39.0103 -84.2678 174° South 406 467 31,000  Level Indianapolis Center
Fri 07:49:27 PM 38.9017 -84.2558 175° South 396 456 31,000 98 Level Indianapolis Center
Fri 07:50:28 PM 38.7933 -84.2428 175° South 396 456 31,200 732 Climbing Indianapolis Center
Fri 07:51:30 PM 38.6650 -84.2244 174° South 391 450 32,500 871 Climbing Indianapolis Center
Fri 07:52:32 PM 38.5639 -84.2136 175° South 386 444 33,000 242 Climbing Indianapolis Center
Fri 07:53:34 PM 38.4589 -84.2006 174° South 383 441 33,000  Level Indianapolis Center
Fri 07:54:36 PM 38.3525 -84.1861 174° South 383 441 33,000  Level Indianapolis Center
Fri 07:55:37 PM 38.2281 -84.1731 175° South 383 441 33,000  Level Indianapolis Center
Fri 07:56:39 PM 38.1250 -84.1592 174° South 377 434 33,000  Level Indianapolis Center
Fri 07:57:41 PM 38.0219 -84.1472 175° South 374 430 33,000  Level Indianapolis Center
Fri 07:58:43 PM 37.9169 -84.1356 175° South 374 430 33,000  Level Indianapolis Center
Fri 07:59:44 PM 37.8133 -84.1219 174° South 374 430 33,000  Level Indianapolis Center
Fri 08:00:46 PM 37.7075 -84.1081 174° South 377 434 33,000  Level Indianapolis Center
Fri 08:01:48 PM 37.5856 -84.0942 175° South 378 435 33,000  Level Indianapolis Center
Fri 08:02:49 PM 37.4806 -84.0819 175° South 378 435 33,000  Level Indianapolis Center
Fri 08:03:51 PM 37.3758 -84.0692 174° South 378 435 33,000  Level Indianapolis Center
Fri 08:04:53 PM 37.2728 -84.0572 175° South 377 434 33,000  Level Indianapolis Center
Fri 08:05:54 PM 37.1697 -84.0447 174° South 377 434 33,000  Level Indianapolis Center
Fri 08:06:56 PM 37.0664 -84.0317 174° South 376 433 33,000  Level Indianapolis Center
Fri 08:07:58 PM 36.9467 -84.0183 175° South 372 428 33,000  Level Indianapolis Center
Fri 08:09:00 PM 36.8439 -84.0056 174° South 372 428 33,000  Level Indianapolis Center
Fri 08:10:01 PM 36.7411 -83.9947 175° South 371 427 33,000  Level Indianapolis Center
Fri 08:11:03 PM 36.6378 -83.9819 174° South 372 428 33,000  Level Indianapolis Center
Fri 08:12:05 PM 36.5350 -83.9697 175° South 372 428 33,000  Level Indianapolis Center
Fri 08:13:07 PM 36.4294 -83.9758 183° South 364 419 33,000  Level Indianapolis Center
Fri 08:14:08 PM 36.3322 -83.9942 189° South 356 410 33,000  Level Indianapolis Center
Fri 08:15:10 PM 36.2339 -84.0119 188° South 356 410 33,000  Level Indianapolis Center
Fri 08:16:12 PM 36.1350 -84.0278 187° South 356 410 33,000  Level Indianapolis Center
Fri 08:17:14 PM 36.0353 -84.0450 188° South 356 410 33,000  Level Indianapolis Center
Fri 08:18:15 PM 35.9144 -84.0642 187° South 358 412 33,000  Level Indianapolis Center
Fri 08:19:17 PM 35.8139 -84.0825 188° South 359 413 33,000  Level Indianapolis Center
Fri 08:20:16 PM 35.7142 -84.1000 188° South 368 423 33,000  Level Atlanta Center
Fri 08:21:16 PM 35.6139 -84.1181 188° South 368 423 33,000  Level Atlanta Center
Fri 08:22:16 PM 35.5242 -84.1331 188° South 368 423 33,000  Level Atlanta Center
Fri 08:23:16 PM 35.4242 -84.1483 187° South 368 423 33,000  Level Atlanta Center
Fri 08:24:16 PM 35.3219 -84.1636 187° South 368 423 33,000  Level Atlanta Center
Fri 08:25:16 PM 35.2217 -84.1786 187° South 368 423 33,000  Level Atlanta Center
Fri 08:26:16 PM 35.1214 -84.1961 188° South 368 423 33,000  Level Atlanta Center
Fri 08:27:16 PM 35.0192 -84.2139 188° South 368 423 33,000  Level Atlanta Center
Fri 08:28:16 PM 34.9086 -84.2261 185° South 368 423 33,000  Level Atlanta Center
Fri 08:29:16 PM 34.8083 -84.2461 189° South 368 423 33,000  Level Atlanta Center
Fri 08:30:16 PM 34.7061 -84.2611 187° South 368 423 33,000  Level Atlanta Center
Fri 08:31:16 PM 34.6058 -84.2786 188° South 368 423 33,000  Level Atlanta Center
Fri 08:32:16 PM 34.5058 -84.2933 187° South 368 423 33,000  Level Atlanta Center
Fri 08:33:16 PM 34.4033 -84.3108 188° South 368 423 33,000  Level Atlanta Center
Fri 08:34:16 PM 34.3031 -84.3256 187° South 368 423 33,000  Level Atlanta Center
Fri 08:35:16 PM 34.2008 -84.3428 188° South 368 423 33,000  Level Atlanta Center
Fri 08:36:16 PM 34.1028 -84.3600 188° South 374 430 33,000  Level Atlanta Center
Fri 08:37:16 PM 34.0025 -84.3747 187° South 374 430 33,000  Level Atlanta Center
Fri 08:38:16 PM 33.9022 -84.3917 188° South 374 430 33,000  Level Atlanta Center
Fri 08:39:16 PM 33.7958 -84.4086 188° South 374 430 33,000  Level Atlanta Center
Fri 08:40:16 PM 33.6978 -84.4233 187° South 373 429 33,000  Level Atlanta Center
Fri 08:41:16 PM 33.5744 -84.4353 185° South 378 435 33,000  Level Atlanta Center
Fri 08:42:16 PM 33.4681 -84.4322 179° South 385 443 33,000  Level Atlanta Center
Fri 08:43:16 PM 33.3617 -84.4292 179° South 385 443 33,000  Level Atlanta Center
Fri 08:44:16 PM 33.2550 -84.4289 180° South 385 443 33,000  Level Atlanta Center
Fri 08:45:16 PM 33.1486 -84.4283 180° South 385 443 33,000  Level Atlanta Center
Fri 08:46:16 PM 33.0528 -84.4256 179° South 385 443 33,000  Level Atlanta Center
Fri 08:47:16 PM 32.9442 -84.4225 179° South 385 443 33,000  Level Atlanta Center
Fri 08:48:16 PM 32.8378 -84.4194 179° South 385 443 33,000  Level Atlanta Center
Fri 08:49:16 PM 32.7186 -84.4167 179° South 385 443 33,000  Level Atlanta Center
Fri 08:50:16 PM 32.6122 -84.4086 176° South 385 443 33,000  Level Atlanta Center
Fri 08:51:16 PM 32.5039 -84.3861 170° South 385 443 33,000  Level Atlanta Center
Fri 08:52:16 PM 32.3953 -84.3661 171° South 390 449 33,000  Level Atlanta Center
Fri 08:54:30 PM 32.1669 -84.3208 170° South 392 451 33,000  Level Jacksonville Center
Fri 08:55:30 PM 32.0586 -84.2997 171° South 392 451 33,000  Level Jacksonville Center
Fri 08:56:30 PM 31.9503 -84.2808 172° South 392 451 33,000  Level Jacksonville Center
Fri 08:57:30 PM 31.8419 -84.2597 171° South 392 451 33,000  Level Jacksonville Center
Fri 08:58:30 PM 31.7356 -84.2386 170° South 392 451 33,000  Level Jacksonville Center
Fri 08:59:30 PM 31.6272 -84.2175 171° South 392 451 33,000  Level Jacksonville Center
Fri 09:00:30 PM 31.5189 -84.2014 173° South 392 451 33,000  Level Jacksonville Center
Fri 09:01:30 PM 31.4167 -84.1803 170° South 387 445 33,000  Level Jacksonville Center
Fri 09:02:30 PM 31.3125 -84.1619 171° South 387 445 33,000  Level Jacksonville Center
Fri 09:03:30 PM 31.2083 -84.1436 171° South 382 440 33,000  Level Jacksonville Center
Fri 09:04:30 PM 31.1042 -84.1131 166° South 388 447 33,000  Level Jacksonville Center
Fri 09:05:30 PM 31.0000 -84.0803 165° South 388 447 33,000  Level Jacksonville Center
Fri 09:06:30 PM 30.8939 -84.0450 164° South 388 447 33,000  Level Jacksonville Center
Fri 09:07:30 PM 30.7919 -84.0097 163° South 393 452 33,000  Level Jacksonville Center
Fri 09:08:30 PM 30.6858 -83.9747 164° South 393 452 33,000  Level Jacksonville Center
Fri 09:09:30 PM 30.5794 -83.9422 165° South 393 452 33,000 -50 Level Jacksonville Center
Fri 09:10:30 PM 30.4672 -83.9047 164° South 388 447 32,900 -50 Descending Jacksonville Center
Fri 09:11:30 PM 30.3608 -83.8700 164° South 388 447 32,900  Level Jacksonville Center
Fri 09:12:30 PM 30.2506 -83.8353 165° South 401 461 32,900  Level Jacksonville Center
Fri 09:13:30 PM 30.1400 -83.8028 166° South 401 461 32,900 -900 Level Jacksonville Center
Fri 09:14:30 PM 30.0317 -83.7683 165° South 406 467 31,100 -2,050 Descending Jacksonville Center
Fri 09:15:30 PM 29.9172 -83.7314 164° South 413 475 28,800 -1,850 Descending Jacksonville Center
Fri 09:16:30 PM 29.8047 -83.6969 165° South 413 475 27,400 -950 Descending Jacksonville Center
Fri 09:17:30 PM 29.6922 -83.6600 164° South 420 483 26,900 -250 Descending Jacksonville Center
Fri 09:18:30 PM 29.5817 -83.6258 165° South 414 476 26,900 -150 Level Jacksonville Center
Fri 09:19:30 PM 29.4672 -83.5892 164° South 414 476 26,600 -850 Descending Jacksonville Center
Fri 09:20:30 PM 29.3567 -83.5550 165° South 414 476 25,200 -1,350 Descending Jacksonville Center
Fri 09:21:30 PM 29.2483 -83.5208 165° South 409 471 23,900 -650 Descending Jacksonville Center
Fri 09:22:30 PM 29.1483 -83.4656 154° Southeast 409 471 23,900 -500 Level Jacksonville Center
Fri 09:23:30 PM 29.0483 -83.4008 150° Southeast 409 471 22,900 -1,450 Descending Jacksonville Center
Fri 09:24:30 PM 28.9483 -83.3386 151° Southeast 409 471 21,000 -1,900 Descending Jacksonville Center
Fri 09:25:30 PM 28.8547 -83.2742 149° Southeast 409 471 19,100 -1,850 Descending Jacksonville Center
Fri 09:26:30 PM 28.7608 -83.2194 153° Southeast 396 456 17,300 -1,650 Descending Jacksonville Center
Fri 09:27:30 PM 28.6672 -83.1622 152° Southeast 391 450 15,800 -1,393 Descending Jacksonville Center
Fri 09:29:18 PM 28.5167 -83.0667 151° Southeast 355 409 13,400 -1,036 Descending Tampa TRACON
Fri 09:30:18 PM 28.4333 -83.0167 152° Southeast 335 386 12,900 -1,050 Descending Tampa TRACON
Fri 09:31:18 PM 28.3500 -82.9667 152° Southeast 330 380 11,300 -1,700 Descending Tampa TRACON
Fri 09:32:18 PM 28.2833 -82.9000 139° Southeast 315 362 9,500 -1,850 Descending Tampa TRACON
Fri 09:33:18 PM 28.2167 -82.8500 147° Southeast 295 339 7,600 -2,000 Descending Tampa TRACON
Fri 09:34:18 PM 28.1667 -82.7833 130° Southeast 262 302 5,500 -2,000 Descending Tampa TRACON
Fri 09:35:00 PM 28.1333 -82.7500 139° Southeast 245 282 4,200 -1,647 Descending Tampa TRACON
Fri 09:36:00 PM 28.0833 -82.7167 150° Southeast 210 242 2,700 -1,150 Descending Tampa TRACON
Fri 09:37:00 PM 28.0167 -82.7000 168° South 173 199 1,900 -800 Descending Tampa TRACON
Fri 09:38:00 PM 27.9833 -82.7000 180° South 140 161 1,100 -739 Descending Tampa TRACON
Fri 09:39:18 PM 27.9333 -82.7000 180° South 132 152 200 -692 Descending Tampa TRACON

Login

Don't have an account? Register now (free) for customized features, flight alerts, and more!